ADDS TAF Board (Experimental) INFO Settings
IDs: Format: Expanded Condensed

KSEA - Seattle-Tacoma Intl, WA, US

Issued at 2100 UTC 08 Feb 2016
Updated at: 2307 UTC 08 Feb 2016
Time2253Z 09/00Z 09/01Z 09/02Z 09/03Z 09/04Z 09/05Z 09/06Z 09/07Z 09/08Z 09/09Z 09/10Z 09/11Z 09/12Z
Type OBS PRVL PRVL PRVL PRVL PRVL PRVL PRVL PRVL PRVL PRVL PRVL PRVL PRVL
VIS 10 >6 >6 >6 >6 >6 >6 >6 >6 >6 >6 >6 >6 >6
CIG 250 -- -- -- -- -- -- -- -- -- -- -- -- --
Cover BKN SCT SCT SCT SCT SCT SCT SCT SCT SCT SCT SCT SCT SCT
FltCat VFR VFR VFR VFR VFR VFR VFR VFR VFR VFR VFR VFR VFR VFR
WX -- -- -- -- -- -- -- -- -- -- -- -- -- --
WDir 360 340 340 340 340 20 20 20 20 20 20 20 20 20
WSpd 5 6 6 6 6 7 7 7 7 7 7 7 7 7
WGst -- -- -- -- -- -- -- -- -- -- -- -- -- --
R16/34
XWnd -0 -2 -2 -2 -2 2 2 2 2 2 2 2 2 2
HWnd -5 -6 -6 -6 -6 -7 -7 -7 -7 -7 -7 -7 -7 -7

NOTE: TEMPO conditions in [brackets]. Keep in mind TEMPO conditions might be better (lower impact) than prevailing conditions.

Raw TAF
KSEA 082100Z 0821/0924 34006KT P6SM SCT250
  FM090400 02007KT P6SM SCT250


Raw METAR
KSEA 082253Z 36005KT 10SM BKN250 14/06 A3037 RMK AO2 SLP292 T01440061
KSEA 082153Z 01005KT 10SM SCT250 14/06 A3039 RMK AO2 SLP297 T01390056
KSEA 082053Z 34006KT 10SM SCT250 13/06 A3042 RMK AO2 SLP307 T01330056 58015

METAR Board
Radar Display
Forecast Discussion

TAF Board Legend

Potential Impact
Threat None Slight Moderate High
Visibility (sm) ≥5.1 5.1>X≥3 3>X≥1 <1
Ceiling (100 ft) ≥30.1 30.1>X≥10 10>X≥5 <5
Wind Speed (kt) <10 10≤X<20 20≤X<30 ≥30
Wind Gust (kt) <15 15≤X<25 25≤X<35 ≥35
Weather No Wx Reported VCTS,-TS,-FZRA,SN TS,FZRA +TS,+FZRA,+SN